Home > Products > Valid Products > MTR

000
SAUS46 KPQR 221153
MTRREO
METAR KREO 221152Z AUTO 05008KT 06/04 A3009 RMK AO1 SLP184 T00610044
10089 20061 53005





000
SAUS46 KPQR 221053
MTRREO
METAR KREO 221052Z AUTO 01004KT 07/04 A3008 RMK AO1 SLP180 T00670044





000
SAUS46 KPQR 221053
MTRREO
METAR KREO 221052Z AUTO 01004KT 07/04 A3008 RMK AO1 SLP180 T00670044





000
SAUS46 KPQR 220953
MTRREO
METAR KREO 220952Z AUTO 00000KT 08/05 A3006 RMK AO1 SLP172 T00830050





000
SAUS46 KPQR 220853
MTRREO
METAR KREO 220852Z AUTO 00000KT 08/05 A3007 RMK AO1 SLP172 T00830050
58010





000
SAUS46 KPQR 220753
MTRREO
METAR KREO 220752Z AUTO 16004KT 08/04 A3008 RMK AO1 SLP175 T00830044
401390072





000
SAUS46 KPQR 220753
MTRREO
METAR KREO 220752Z AUTO 16004KT 08/04 A3008 RMK AO1 SLP175 T00830044
401390072





000
SAUS46 KPQR 220653
MTRREO
METAR KREO 220652Z AUTO 00000KT 08/04 A3010 RMK AO1 SLP186 T00780039





000
SAUS46 KPQR 220553
MTRREO
METAR KREO 220552Z AUTO 31008KT 08/04 A3010 RMK AO1 SLP188 T00830039
10111 20078 53003





000
SAUS46 KPQR 220453
MTRREO
METAR KREO 220452Z AUTO 32007KT 09/04 A3010 RMK AO1 SLP184 T00890039





000
SAUS46 KPQR 220353
MTRREO
METAR KREO 220352Z AUTO VRB03KT 08/04 A3010 RMK AO1 SLP188 T00780044





000
SAUS46 KPQR 220353
MTRREO
METAR KREO 220352Z AUTO VRB03KT 08/04 A3010 RMK AO1 SLP188 T00780044





000
SAUS46 KPQR 220253
MTRREO
METAR KREO 220252Z AUTO 03004KT 08/05 A3009 RMK AO1 SLP187 T00780050
51020





000
SAUS46 KPQR 220153
MTRREO
METAR KREO 220152Z AUTO 05003KT 08/06 A3008 RMK AO1 SLP180 T00830056





000
SAUS46 KPQR 220153
MTRREO
METAR KREO 220152Z AUTO 05003KT 08/06 A3008 RMK AO1 SLP180 T00830056





000
SAUS46 KPQR 220053
MTRREO
METAR KREO 220052Z AUTO 34007KT 09/06 A3005 RMK AO1 SLP168 T00940056





000
SAUS46 KPQR 220053
MTRREO
METAR KREO 220052Z AUTO 34007KT 09/06 A3005 RMK AO1 SLP168 T00940056





000
SAUS46 KPQR 212353
MTRREO
METAR KREO 212352Z AUTO 31012KT 11/05 A3003 RMK AO1 SLP160 T01110050
10139 20111 53017





000
SAUS46 KPQR 212353
MTRREO
METAR KREO 212352Z AUTO 31012KT 11/05 A3003 RMK AO1 SLP160 T01110050
10139 20111 53017





000
SAUS46 KPQR 212253
MTRREO
METAR KREO 212252Z AUTO 28013G19KT 12/04 A3000 RMK AO1 SLP147
T01220044





000
SAUS46 KPQR 212153
MTRREO
METAR KREO 212152Z AUTO 28016G21KT 13/05 A2999 RMK AO1 SLP144
T01280050





000
SAUS46 KPQR 212053
MTRREO
METAR KREO 212052Z AUTO 24013KT 13/05 A2997 RMK AO1 PK WND
23032/2008 SLP138 T01330050 54000





000
SAUS46 KPQR 211955
MTRREO
METAR KREO 211952Z AUTO 24022G30KT 13/05 A2997 RMK AO1 PK WND
23031/1904 SLP137 T01330050





000
SAUS46 KPQR 211955
MTRREO
METAR KREO 211952Z AUTO 24022G30KT 13/05 A2997 RMK AO1 PK WND
23031/1904 SLP137 T01330050





000
SAUS46 KPQR 211853
MTRREO
METAR KREO 211852Z AUTO 23024G32KT 12/04 A2997 RMK AO1 PK WND
24033/1826 SLP143 T01170044





000
SAUS46 KPQR 211753
MTRREO
METAR KREO 211752Z AUTO 24023G29KT 12/04 A2997 RMK AO1 PK WND
23033/1722 SLP140 T01170039 10122 20094 53017





000
SAUS46 KPQR 211653
MTRREO
METAR KREO 211652Z AUTO 23019G29KT 12/04 A2996 RMK AO1 PK WND
24032/1619 SLP137 T01170039





000
SAUS46 KPQR 211553
MTRREO
METAR KREO 211552Z AUTO 23021G26KT 10/03 A2991 RMK AO1 PK WND
23029/1508 SLP124 T01000033





000
SAUS46 KPQR 211453
MTRREO
METAR KREO 211452Z AUTO 22020G29KT 10/03 A2992 RMK AO1 PK WND
22030/1429 SLP126 T01000033 53002





000
SAUS46 KPQR 211354
MTRREO
METAR KREO 211352Z AUTO 22017G24KT 10/04 A2991 RMK AO1 PK WND
22030/1253 SLP126 T01000039





000
SAUS46 KPQR 211354
MTRREO
METAR KREO 211352Z AUTO 22017G24KT 10/04 A2991 RMK AO1 PK WND
22030/1253 SLP126 T01000039





000
SAUS46 KPQR 211258
MTRREO
METAR KREO 211252Z AUTO 22020G31KT 10/04 A2988 RMK AO1 PK WND
22031/1248 SLP119 T01000044





000
SAUS46 KPQR 211258
MTRREO
METAR KREO 211252Z AUTO 22020G31KT 10/04 A2988 RMK AO1 PK WND
22031/1248 SLP119 T01000044





000
SAUS46 KPQR 211153
MTRREO
METAR KREO 211152Z AUTO 21016G24KT 10/04 A2991 RMK AO1 SLP128 70020
T01000039 10100 20083 51009





000
SAUS46 KPQR 211153
MTRREO
METAR KREO 211152Z AUTO 21016G24KT 10/04 A2991 RMK AO1 SLP128 70020
T01000039 10100 20083 51009





000
SAUS46 KPQR 211053
MTRREO
METAR KREO 211052Z AUTO 20014KT 09/04 A2990 RMK AO1 SLP125 T00940039





000
SAUS46 KPQR 211053
MTRREO
METAR KREO 211052Z AUTO 20014KT 09/04 A2990 RMK AO1 SLP125 T00940039





000
SAUS46 KPQR 210953
MTRREO
METAR KREO 210952Z AUTO 19015G23KT 09/03 A2991 RMK AO1 PK WND
20027/0853 SLP127 T00940033





000
SAUS46 KPQR 210953
MTRREO
METAR KREO 210952Z AUTO 19015G23KT 09/03 A2991 RMK AO1 PK WND
20027/0853 SLP127 T00940033





000
SAUS46 KPQR 210853
MTRREO
METAR KREO 210852Z AUTO 20023G29KT 09/03 A2988 RMK AO1 PK WND
20032/0823 SLP116 T00940033 58006





000
SAUS46 KPQR 210753
MTRREO
METAR KREO 210752Z AUTO 18020KT 09/03 A2990 RMK AO1 PK WND
19029/0722 SLP123 T00940028 400940022





000
SAUS46 KPQR 210653
MTRREO
METAR KREO 210652Z AUTO 18016KT 08/03 A2990 RMK AO1 PK WND
20029/0617 SLP126 T00830028





000
SAUS46 KPQR 210553
MTRREO
METAR KREO 210552Z AUTO 19018G29KT 09/02 A2990 RMK AO1 PK WND
19029/0549 SLP126 T00890022 10089 20039 57003





000
SAUS46 KPQR 210453
MTRREO
METAR KREO 210452Z AUTO 19017G22KT 08/03 A2990 RMK AO1 SLP128
T00780028





000
SAUS46 KPQR 210453
MTRREO
METAR KREO 210452Z AUTO 19017G22KT 08/03 A2990 RMK AO1 SLP128
T00780028





000
SAUS46 KPQR 210353
MTRREO
METAR KREO 210352Z AUTO 19019G24KT 08/03 A2991 RMK AO1 PK WND
21027/0254 SLP131 T00780028





000
SAUS46 KPQR 210353
MTRREO
METAR KREO 210352Z AUTO 19019G24KT 08/03 A2991 RMK AO1 PK WND
21027/0254 SLP131 T00780028





000
SAUS46 KPQR 210253
MTRREO
METAR KREO 210252Z AUTO 20019G27KT 08/02 A2991 RMK AO1 PK WND
19027/0243 SLP133 T00780022 53001





000
SAUS46 KPQR 210153
MTRREO
METAR KREO 210152Z AUTO 18014G21KT 07/02 A2991 RMK AO1 SLP133
T00670017





000
SAUS46 KPQR 210053
MTRREO
METAR KREO 210052Z AUTO 16011KT 04/01 A2990 RMK AO1 SLP133 T00390011





000
SAUS46 KPQR 202353
MTRREO
METAR KREO 202352Z AUTO 16014KT 04/01 A2991 RMK AO1 SLP136 P0001
60014 T00390011 10067 20039 58013





000
SAUS46 KPQR 202255
MTRREO
METAR KREO 202252Z AUTO 18011KT 04/02 A2992 RMK AO1 SLP142 P0005
T00440022





000
SAUS46 KPQR 202153
MTRREO
METAR KREO 202152Z AUTO 17014KT 05/02 A2994 RMK AO1 SLP146 P0006
T00500022





000
SAUS46 KPQR 202053
MTRREO
METAR KREO 202052Z AUTO 18014G21KT 06/02 A2995 RMK AO1 SLP151 P0002
60002 T00560022 55007





000
SAUS46 KPQR 201953
MTRREO
METAR KREO 201952Z AUTO 18016KT 06/01 A2994 RMK AO1 SLP147 T00610011





000
SAUS46 KPQR 201853
MTRREO
METAR KREO 201852Z AUTO 16014KT 06/02 A2996 RMK AO1 SLP153 T00560017





000
SAUS46 KPQR 201753
MTRREO
METAR KREO 201752Z AUTO 16013KT 05/01 A2997 RMK AO1 SLP161 60006
T00500011 10050 20033 55001





000
SAUS46 KPQR 201653
MTRREO
METAR KREO 201652Z AUTO 16011KT 04/01 A2997 RMK AO1 SLP159 T00440011





000
SAUS46 KPQR 201553
MTRREO
METAR KREO 201552Z AUTO 17012KT 04/01 A2996 RMK AO1 SLP155 T00390011





000
SAUS46 KPQR 201453
MTRREO
METAR KREO 201452Z AUTO 16009KT 03/01 A2998 RMK AO1 SLP163 P0001
60006 T00330011 58005





000
SAUS46 KPQR 201353
MTRREO
METAR KREO 201352Z AUTO 17008KT 03/01 A2999 RMK AO1 SLP164 P0002
T00330011





000
SAUS46 KPQR 201257
MTRREO
METAR KREO 201252Z AUTO 18009KT 03/01 A2999 RMK AO1 SLP167 P0003
T00330011





000
SAUS46 KPQR 201153
MTRREO
METAR KREO 201152Z AUTO 17009KT 04/01 A2999 RMK AO1 SLP162 70005
T00440006 10044 20006 58012





000
SAUS46 KPQR 201053
MTRREO
METAR KREO 201052Z AUTO 15009KT 03/00 A3001 RMK AO1 SLP168 T00330000





000
SAUS46 KPQR 200958 COR
MTRREO
METAR KREO 200952Z AUTO 15011KT 03/00 A3002 RMK AO1 SLP172 T00330000





000
SAUS46 KPQR 200957 COR
MTRREO
METAR KREO 200952Z AUTO 15011KT 03/00 A3002 RMK AO1 SLP172 T00330000





000
SAUS46 KPQR 200955 COR
MTRREO
METAR KREO 200952Z AUTO 15011KT 03/00 A3002 RMK AO1 SLP172 T00330000





000
SAUS46 KPQR 200954 COR
MTRREO
METAR KREO 200952Z AUTO 15011KT 03/00 A3002 RMK AO1 SLP172 T00330000





000
SAUS46 KPQR 200953
MTRREO
METAR KREO 200952Z AUTO 15011KT 03/00 A3002 RMK AO1 SLP172 T00330000





000
SAUS46 KPQR 200853
MTRREO
METAR KREO 200852Z AUTO 18007KT 03/00 A3003 RMK AO1 SLP178 T00330000
55010





000
SAUS46 KPQR 200753
MTRREO
METAR KREO 200752Z AUTO 18008KT 03/00 A3003 RMK AO1 SLP176 T00330000
400720006





000
SAUS46 KPQR 200753
MTRREO
METAR KREO 200752Z AUTO 18008KT 03/00 A3003 RMK AO1 SLP176 T00330000
400720006





000
SAUS46 KPQR 200653
MTRREO
METAR KREO 200652Z AUTO 14009KT 02/M01 A3004 RMK AO1 SLP181
T00221006





000
SAUS46 KPQR 200553
MTRREO
METAR KREO 200552Z AUTO 18004KT 01/M01 A3007 RMK AO1 SLP196
T00111011 10061 20011 51006





000
SAUS46 KPQR 200453
MTRREO
METAR KREO 200452Z AUTO 16003KT 02/M01 A3006 RMK AO1 SLP192
T00221006





000
SAUS46 KPQR 200353
MTRREO
METAR KREO 200352Z AUTO 19007G14KT 04/01 A3006 RMK AO1 SLP191
T00390006





000
SAUS46 KPQR 200353
MTRREO
METAR KREO 200352Z AUTO 19007G14KT 04/01 A3006 RMK AO1 SLP191
T00390006





000
SAUS46 KPQR 200253
MTRREO
METAR KREO 200252Z AUTO 13012KT 03/00 A3005 RMK AO1 SLP187 T00330000
50010





000
SAUS46 KPQR 200153
MTRREO
METAR KREO 200152Z AUTO 14009KT 04/00 A3005 RMK AO1 SLP188 T00390000





000
SAUS46 KPQR 200153
MTRREO
METAR KREO 200152Z AUTO 14009KT 04/00 A3005 RMK AO1 SLP188 T00390000





000
SAUS46 KPQR 200053
MTRREO
METAR KREO 200052Z AUTO 15009KT 04/00 A3003 RMK AO1 SLP178 T00440000





000
SAUS46 KPQR 192353
MTRREO
METAR KREO 192352Z AUTO 21011KT 06/01 A3001 RMK AO1 SLP173 60001
T00610006 10072 20044 53004





000
SAUS46 KPQR 192253
MTRREO
METAR KREO 192252Z AUTO 21013KT 07/01 A3001 RMK AO1 SLP165 T00720011





000
SAUS46 KPQR 192153
MTRREO
METAR KREO 192152Z AUTO 15012KT 07/02 A3000 RMK AO1 WSHFT 2124
SLP165 T00670017





000
SAUS46 KPQR 192143
MTRREO
SPECI KREO 192141Z AUTO 16011KT 07/02 A3000 RMK AO1 WSHFT 2124
T00670017





000
SAUS46 KPQR 192054
MTRREO
METAR KREO 192052Z AUTO 20011KT 07/02 A3000 RMK AO1 SLP164 60001
T00670017 55008





000
SAUS46 KPQR 191953
MTRREO
METAR KREO 191952Z AUTO 17009KT 06/02 A3000 RMK AO1 SLP167 T00610017





000
SAUS46 KPQR 191953
MTRREO
METAR KREO 191952Z AUTO 17009KT 06/02 A3000 RMK AO1 SLP167 T00610017





000
SAUS46 KPQR 191853
MTRREO
METAR KREO 191852Z AUTO 15008KT 05/02 A3001 RMK AO1 SLP171 P0001
T00500022





000
SAUS46 KPQR 191753
MTRREO
METAR KREO 191752Z AUTO 18006KT 04/02 A3003 RMK AO1 SLP181 60004
T00440017 10050 20022 51013





000
SAUS46 KPQR 191653
MTRREO
METAR KREO 191652Z AUTO 18008KT 04/01 A3002 RMK AO1 SLP175 P0002
T00390011





000
SAUS46 KPQR 191553
MTRREO
METAR KREO 191552Z AUTO 17010KT 04/00 A3000 RMK AO1 SLP170 T00390000





000
SAUS46 KPQR 191453
MTRREO
METAR KREO 191452Z AUTO 19005KT 03/00 A2999 RMK AO1 SLP165 60002
T00330000 55004





000
SAUS46 KPQR 191354
MTRREO
METAR KREO 191352Z AUTO 15011KT 03/M01 A2998 RMK AO1 SLP162
T00281006





    US Dept of Commerce
    National Oceanic and Atmospheric Administration
    National Weather Service
    1325 East West Highway
    Silver Spring, MD 20910
    Page Author: NWS Internet Services Team
Disclaimer
Information Quality
Credits
Glossary
Privacy Policy
Freedom of Information Act (FOIA)
About Us
Career Opportunities